Terminal Aerodrome Forecast
Issued by NWS

Home | Current Version | Previous Version | Text Only | Print | Product List | Glossary On
Versions: 1 2 3 4 5 6 7 8 9 10 11 12 13 14 15 16 17 18
000
FTUS44 KHGX 312336
TAFUTS
TAF
KUTS 312336Z 0100/0124 17004KT P6SM OVC150
     FM010100 16005KT P6SM VCSH SCT035 BKN120
      TEMPO 0101/0104 -TSRA BKN035CB
     FM010500 13005KT P6SM BKN025 BKN110
     FM011100 14004KT P6SM VCSH BKN015
     FM011700 13006KT P6SM VCSH SCT025 BKN040 PROB30 0118/0124 -TSRA
      BKN035CB=

USA.gov is the U.S. government's official web portal to all federal, state and local government web resources and services.